sensor_id;sensor_type;location;lat;lon;timestamp;temperature;humidity
44477;DHT22;30180;44.788;10.366;2022-10-17T08:46:09;20.20;74.40
44477;DHT22;30180;44.788;10.366;2022-10-17T08:48:41;20.10;74.90
44477;DHT22;30180;44.788;10.366;2022-10-17T08:51:16;20.20;75.10
44477;DHT22;30180;44.788;10.366;2022-10-17T08:53:48;20.20;75.10
44477;DHT22;30180;44.788;10.366;2022-10-17T08:56:25;20.20;75.20
44477;DHT22;30180;44.788;10.366;2022-10-17T08:59:17;20.30;75.40
44477;DHT22;30180;44.788;10.366;2022-10-17T09:01:51;20.30;75.40
44477;DHT22;30180;44.788;10.366;2022-10-17T09:04:39;20.30;75.60
44477;DHT22;30180;44.788;10.366;2022-10-17T09:07:16;20.30;75.60
44477;DHT22;30180;44.788;10.366;2022-10-17T09:09:54;20.30;75.60
44477;DHT22;30180;44.788;10.366;2022-10-17T09:12:29;20.40;75.70
44477;DHT22;30180;44.788;10.366;2022-10-17T09:15:20;20.40;75.80
44477;DHT22;30180;44.788;10.366;2022-10-17T09:17:54;20.40;75.80
44477;DHT22;30180;44.788;10.366;2022-10-17T09:20:28;20.50;75.90
44477;DHT22;30180;44.788;10.366;2022-10-17T09:23:00;20.50;75.90
44477;DHT22;30180;44.788;10.366;2022-10-17T09:25:32;20.50;75.90
44477;DHT22;30180;44.788;10.366;2022-10-17T09:28:09;20.50;75.90
44477;DHT22;30180;44.788;10.366;2022-10-17T09:30:42;20.50;75.90
44477;DHT22;30180;44.788;10.366;2022-10-17T09:33:20;20.50;75.90
44477;DHT22;30180;44.788;10.366;2022-10-17T09:36:10;20.50;75.90
44477;DHT22;30180;44.788;10.366;2022-10-17T09:38:42;20.50;75.90
44477;DHT22;30180;44.788;10.366;2022-10-17T09:41:19;20.50;75.90
44477;DHT22;30180;44.788;10.366;2022-10-17T09:44:14;20.50;75.90
44477;DHT22;30180;44.788;10.366;2022-10-17T09:46:49;20.50;75.90
44477;DHT22;30180;44.788;10.366;2022-10-17T09:49:31;20.60;76.00
44477;DHT22;30180;44.788;10.366;2022-10-17T09:52:00;20.50;75.90
44477;DHT22;30180;44.788;10.366;2022-10-17T09:54:42;20.60;76.00
44477;DHT22;30180;44.788;10.366;2022-10-17T09:57:15;20.60;75.90
44477;DHT22;30180;44.788;10.366;2022-10-17T09:59:45;20.60;75.90
44477;DHT22;30180;44.788;10.366;2022-10-17T10:02:19;20.60;75.90
44477;DHT22;30180;44.788;10.366;2022-10-17T10:05:08;20.60;75.90
44477;DHT22;30180;44.788;10.366;2022-10-17T10:07:42;20.50;75.90
44477;DHT22;30180;44.788;10.366;2022-10-17T10:10:23;20.60;75.90
44477;DHT22;30180;44.788;10.366;2022-10-17T10:13:05;20.60;75.90
44477;DHT22;30180;44.788;10.366;2022-10-17T10:15:35;20.60;75.80
44477;DHT22;30180;44.788;10.366;2022-10-17T10:21:03;20.60;75.70
44477;DHT22;30180;44.788;10.366;2022-10-17T10:23:32;20.60;75.80
44477;DHT22;30180;44.788;10.366;2022-10-17T10:26:02;20.60;75.70
44477;DHT22;30180;44.788;10.366;2022-10-17T10:28:32;20.60;75.70
44477;DHT22;30180;44.788;10.366;2022-10-17T10:31:15;20.60;75.80
44477;DHT22;30180;44.788;10.366;2022-10-17T10:33:43;20.60;75.70
44477;DHT22;30180;44.788;10.366;2022-10-17T10:36:17;20.60;75.70
44477;DHT22;30180;44.788;10.366;2022-10-17T10:38:55;20.60;75.70
44477;DHT22;30180;44.788;10.366;2022-10-17T10:41:45;20.60;75.70
44477;DHT22;30180;44.788;10.366;2022-10-17T10:44:16;20.60;75.60
44477;DHT22;30180;44.788;10.366;2022-10-17T10:46:46;20.60;75.60
44477;DHT22;30180;44.788;10.366;2022-10-17T10:49:28;20.60;75.60
44477;DHT22;30180;44.788;10.366;2022-10-17T10:51:59;20.60;75.60
44477;DHT22;30180;44.788;10.366;2022-10-17T10:54:31;20.60;75.60
44477;DHT22;30180;44.788;10.366;2022-10-17T10:57:03;20.60;75.60
44477;DHT22;30180;44.788;10.366;2022-10-17T10:59:36;20.60;75.60
44477;DHT22;30180;44.788;10.366;2022-10-17T11:02:17;20.60;75.60
44477;DHT22;30180;44.788;10.366;2022-10-17T11:04:48;20.60;75.60
44477;DHT22;30180;44.788;10.366;2022-10-17T11:07:22;20.60;75.60
44477;DHT22;30180;44.788;10.366;2022-10-17T11:09:55;20.60;75.50
44477;DHT22;30180;44.788;10.366;2022-10-17T11:12:29;20.60;75.50
44477;DHT22;30180;44.788;10.366;2022-10-17T11:15:04;20.60;75.50
44477;DHT22;30180;44.788;10.366;2022-10-17T11:17:39;20.60;75.50
44477;DHT22;30180;44.788;10.366;2022-10-17T11:20:26;20.60;75.50
44477;DHT22;30180;44.788;10.366;2022-10-17T11:23:08;20.60;75.40
44477;DHT22;30180;44.788;10.366;2022-10-17T11:25:39;20.60;75.40
44477;DHT22;30180;44.788;10.366;2022-10-17T11:28:13;20.60;75.40
44477;DHT22;30180;44.788;10.366;2022-10-17T11:30:46;20.60;75.40
44477;DHT22;30180;44.788;10.366;2022-10-17T11:33:23;20.60;75.40
44477;DHT22;30180;44.788;10.366;2022-10-17T11:35:56;20.60;75.40
44477;DHT22;30180;44.788;10.366;2022-10-17T11:38:37;20.60;75.30
44477;DHT22;30180;44.788;10.366;2022-10-17T11:41:11;20.60;75.30
44477;DHT22;30180;44.788;10.366;2022-10-17T11:43:45;20.60;75.30
44477;DHT22;30180;44.788;10.366;2022-10-17T11:46:20;20.60;75.30
44477;DHT22;30180;44.788;10.366;2022-10-17T11:48:59;20.60;75.30
44477;DHT22;30180;44.788;10.366;2022-10-17T11:51:29;20.60;75.30
44477;DHT22;30180;44.788;10.366;2022-10-17T11:54:23;20.60;75.30
44477;DHT22;30180;44.788;10.366;2022-10-17T11:57:01;20.60;75.20
44477;DHT22;30180;44.788;10.366;2022-10-17T11:59:51;20.60;75.20
44477;DHT22;30180;44.788;10.366;2022-10-17T12:02:29;20.60;75.20
44477;DHT22;30180;44.788;10.366;2022-10-17T12:05:03;20.60;75.20
44477;DHT22;30180;44.788;10.366;2022-10-17T12:07:42;20.60;75.10
44477;DHT22;30180;44.788;10.366;2022-10-17T12:10:29;20.60;75.10
44477;DHT22;30180;44.788;10.366;2022-10-17T12:19:27;20.60;75.00
44477;DHT22;30180;44.788;10.366;2022-10-17T12:24:43;20.60;75.00
44477;DHT22;30180;44.788;10.366;2022-10-17T12:27:39;20.60;75.00
44477;DHT22;30180;44.788;10.366;2022-10-17T12:30:18;20.60;75.00
44477;DHT22;30180;44.788;10.366;2022-10-17T12:33:03;20.60;75.00
44477;DHT22;30180;44.788;10.366;2022-10-17T12:35:36;20.60;74.90
44477;DHT22;30180;44.788;10.366;2022-10-17T12:38:25;20.60;74.90
44477;DHT22;30180;44.788;10.366;2022-10-17T12:40:56;20.60;74.90
44477;DHT22;30180;44.788;10.366;2022-10-17T12:43:49;20.60;74.90
44477;DHT22;30180;44.788;10.366;2022-10-17T12:46:46;20.60;74.90
44477;DHT22;30180;44.788;10.366;2022-10-17T12:49:38;20.60;74.80
44477;DHT22;30180;44.788;10.366;2022-10-17T12:52:16;20.60;74.80
44477;DHT22;30180;44.788;10.366;2022-10-17T12:54:50;20.60;74.80
44477;DHT22;30180;44.788;10.366;2022-10-17T12:57:41;20.60;74.80
44477;DHT22;30180;44.788;10.366;2022-10-17T13:00:17;20.60;74.80
44477;DHT22;30180;44.788;10.366;2022-10-17T13:02:46;20.60;74.80
44477;DHT22;30180;44.788;10.366;2022-10-17T13:05:18;20.60;74.80
44477;DHT22;30180;44.788;10.366;2022-10-17T13:07:48;20.60;74.80
44477;DHT22;30180;44.788;10.366;2022-10-17T13:10:21;20.60;74.80
44477;DHT22;30180;44.788;10.366;2022-10-17T13:12:53;20.60;74.80
44477;DHT22;30180;44.788;10.366;2022-10-17T13:15:26;20.60;74.80
44477;DHT22;30180;44.788;10.366;2022-10-17T13:17:56;20.60;74.80
44477;DHT22;30180;44.788;10.366;2022-10-17T13:20:27;20.60;74.80
44477;DHT22;30180;44.788;10.366;2022-10-17T13:22:57;20.60;74.80
44477;DHT22;30180;44.788;10.366;2022-10-17T13:25:27;20.60;74.70
44477;DHT22;30180;44.788;10.366;2022-10-17T13:28:09;20.60;74.80
44477;DHT22;30180;44.788;10.366;2022-10-17T13:30:45;20.60;74.70
44477;DHT22;30180;44.788;10.366;2022-10-17T13:33:28;20.60;74.70
44477;DHT22;30180;44.788;10.366;2022-10-17T13:35:58;20.60;74.70
44477;DHT22;30180;44.788;10.366;2022-10-17T13:38:30;20.60;74.70
44477;DHT22;30180;44.788;10.366;2022-10-17T13:41:10;20.60;74.70
44477;DHT22;30180;44.788;10.366;2022-10-17T13:44:00;20.70;74.80
44477;DHT22;30180;44.788;10.366;2022-10-17T13:46:31;20.70;74.70
44477;DHT22;30180;44.788;10.366;2022-10-17T13:49:10;20.70;74.80
44477;DHT22;30180;44.788;10.366;2022-10-17T13:51:42;20.60;74.60
44477;DHT22;30180;44.788;10.366;2022-10-17T13:54:33;20.60;74.60
44477;DHT22;30180;44.788;10.366;2022-10-17T13:57:02;20.70;74.70
44477;DHT22;30180;44.788;10.366;2022-10-17T13:59:36;20.60;74.60
44477;DHT22;30180;44.788;10.366;2022-10-17T14:02:13;20.70;74.70
44477;DHT22;30180;44.788;10.366;2022-10-17T14:04:41;20.70;74.70
44477;DHT22;30180;44.788;10.366;2022-10-17T14:07:34;20.70;74.70
44477;DHT22;30180;44.788;10.366;2022-10-17T14:10:26;20.70;74.60
44477;DHT22;30180;44.788;10.366;2022-10-17T14:12:58;20.70;74.60
44477;DHT22;30180;44.788;10.366;2022-10-17T14:15:28;20.60;74.60
44477;DHT22;30180;44.788;10.366;2022-10-17T14:18:00;20.70;74.70
44477;DHT22;30180;44.788;10.366;2022-10-17T14:20:34;20.70;74.60
44477;DHT22;30180;44.788;10.366;2022-10-17T14:23:31;20.70;74.60
44477;DHT22;30180;44.788;10.366;2022-10-17T14:26:06;20.70;74.60
44477;DHT22;30180;44.788;10.366;2022-10-17T14:28:37;20.60;74.60
44477;DHT22;30180;44.788;10.366;2022-10-17T14:31:22;20.70;74.60
44477;DHT22;30180;44.788;10.366;2022-10-17T14:33:53;20.70;74.60
44477;DHT22;30180;44.788;10.366;2022-10-17T14:36:33;20.70;74.50
44477;DHT22;30180;44.788;10.366;2022-10-17T14:39:02;20.70;74.60
44477;DHT22;30180;44.788;10.366;2022-10-17T14:41:43;20.70;74.50
44477;DHT22;30180;44.788;10.366;2022-10-17T14:44:19;20.70;74.50
44477;DHT22;30180;44.788;10.366;2022-10-17T14:46:52;20.70;74.50
44477;DHT22;30180;44.788;10.366;2022-10-17T14:49:26;20.70;74.50
44477;DHT22;30180;44.788;10.366;2022-10-17T14:52:26;20.70;74.50
44477;DHT22;30180;44.788;10.366;2022-10-17T14:54:55;20.70;74.50
44477;DHT22;30180;44.788;10.366;2022-10-17T14:57:39;20.70;74.50
44477;DHT22;30180;44.788;10.366;2022-10-17T15:00:12;20.70;74.50
44477;DHT22;30180;44.788;10.366;2022-10-17T15:02:45;20.70;74.50
44477;DHT22;30180;44.788;10.366;2022-10-17T15:05:15;20.70;74.50
44477;DHT22;30180;44.788;10.366;2022-10-17T15:07:43;20.70;74.50
44477;DHT22;30180;44.788;10.366;2022-10-17T15:10:26;20.70;74.50
44477;DHT22;30180;44.788;10.366;2022-10-17T15:12:55;20.70;74.50
44477;DHT22;30180;44.788;10.366;2022-10-17T15:15:46;20.70;74.50
44477;DHT22;30180;44.788;10.366;2022-10-17T15:18:17;20.70;74.50
44477;DHT22;30180;44.788;10.366;2022-10-17T15:20:47;20.70;74.50
44477;DHT22;30180;44.788;10.366;2022-10-17T15:23:30;20.70;74.50
44477;DHT22;30180;44.788;10.366;2022-10-17T15:25:58;20.70;74.50
44477;DHT22;30180;44.788;10.366;2022-10-17T15:28:27;20.70;74.50
44477;DHT22;30180;44.788;10.366;2022-10-17T15:30:55;20.70;74.50
44477;DHT22;30180;44.788;10.366;2022-10-17T15:33:23;20.70;74.50
44477;DHT22;30180;44.788;10.366;2022-10-17T15:35:53;20.70;74.50
44477;DHT22;30180;44.788;10.366;2022-10-17T15:38:21;20.70;74.50
44477;DHT22;30180;44.788;10.366;2022-10-17T15:40:49;20.70;74.50
44477;DHT22;30180;44.788;10.366;2022-10-17T15:43:18;20.70;74.50
44477;DHT22;30180;44.788;10.366;2022-10-17T15:45:46;20.70;74.50
44477;DHT22;30180;44.788;10.366;2022-10-17T15:48:18;20.70;74.50
44477;DHT22;30180;44.788;10.366;2022-10-17T15:50:46;20.70;74.50
44477;DHT22;30180;44.788;10.366;2022-10-17T15:53:16;20.70;74.40
44477;DHT22;30180;44.788;10.366;2022-10-17T15:55:45;20.70;74.40
44477;DHT22;30180;44.788;10.366;2022-10-17T15:58:16;20.70;74.50
44477;DHT22;30180;44.788;10.366;2022-10-17T16:00:45;20.70;74.40
44477;DHT22;30180;44.788;10.366;2022-10-17T16:03:14;20.70;74.40
44477;DHT22;30180;44.788;10.366;2022-10-17T16:05:42;20.70;74.40
44477;DHT22;30180;44.788;10.366;2022-10-17T16:08:10;20.70;74.50
44477;DHT22;30180;44.788;10.366;2022-10-17T16:10:40;20.70;74.50
44477;DHT22;30180;44.788;10.366;2022-10-17T16:13:13;20.70;74.50
44477;DHT22;30180;44.788;10.366;2022-10-17T16:15:42;20.70;74.50
44477;DHT22;30180;44.788;10.366;2022-10-17T16:18:10;20.70;74.40
44477;DHT22;30180;44.788;10.366;2022-10-17T16:20:41;20.70;74.40
44477;DHT22;30180;44.788;10.366;2022-10-17T16:23:11;20.70;74.40
44477;DHT22;30180;44.788;10.366;2022-10-17T16:25:41;20.70;74.40
44477;DHT22;30180;44.788;10.366;2022-10-17T16:28:09;20.70;74.40
44477;DHT22;30180;44.788;10.366;2022-10-17T16:30:41;20.70;74.40
44477;DHT22;30180;44.788;10.366;2022-10-17T16:33:13;20.70;74.40
44477;DHT22;30180;44.788;10.366;2022-10-17T16:35:42;20.70;74.40
44477;DHT22;30180;44.788;10.366;2022-10-17T16:38:11;20.70;74.40
44477;DHT22;30180;44.788;10.366;2022-10-17T16:40:40;20.80;74.50
44477;DHT22;30180;44.788;10.366;2022-10-17T16:43:10;20.70;74.40
44477;DHT22;30180;44.788;10.366;2022-10-17T16:45:39;20.70;74.40
44477;DHT22;30180;44.788;10.366;2022-10-17T16:48:08;20.80;74.50
44477;DHT22;30180;44.788;10.366;2022-10-17T16:50:38;20.70;74.40
44477;DHT22;30180;44.788;10.366;2022-10-17T16:53:06;20.70;74.40
44477;DHT22;30180;44.788;10.366;2022-10-17T16:55:35;20.80;74.40
44477;DHT22;30180;44.788;10.366;2022-10-17T16:58:07;20.80;74.40
44477;DHT22;30180;44.788;10.366;2022-10-17T17:00:37;20.80;74.40
44477;DHT22;30180;44.788;10.366;2022-10-17T17:03:06;20.70;74.40
44477;DHT22;30180;44.788;10.366;2022-10-17T17:05:34;20.80;74.50
44477;DHT22;30180;44.788;10.366;2022-10-17T17:08:02;20.80;74.40
44477;DHT22;30180;44.788;10.366;2022-10-17T17:10:33;20.80;74.40
44477;DHT22;30180;44.788;10.366;2022-10-17T17:13:01;20.80;74.40
44477;DHT22;30180;44.788;10.366;2022-10-17T17:15:31;20.80;74.50
44477;DHT22;30180;44.788;10.366;2022-10-17T17:17:59;20.80;74.40
44477;DHT22;30180;44.788;10.366;2022-10-17T17:20:31;20.80;74.40
44477;DHT22;30180;44.788;10.366;2022-10-17T17:23:00;20.80;74.40
44477;DHT22;30180;44.788;10.366;2022-10-17T17:25:28;20.80;74.40
44477;DHT22;30180;44.788;10.366;2022-10-17T17:27:56;20.80;74.40
44477;DHT22;30180;44.788;10.366;2022-10-17T17:30:24;20.70;74.30
44477;DHT22;30180;44.788;10.366;2022-10-17T17:32:53;20.80;74.40
44477;DHT22;30180;44.788;10.366;2022-10-17T17:35:22;20.80;74.40
44477;DHT22;30180;44.788;10.366;2022-10-17T17:37:55;20.80;74.30
44477;DHT22;30180;44.788;10.366;2022-10-17T17:40:23;20.80;74.30
44477;DHT22;30180;44.788;10.366;2022-10-17T17:42:51;20.80;74.30
44477;DHT22;30180;44.788;10.366;2022-10-17T17:45:19;20.70;74.30
44477;DHT22;30180;44.788;10.366;2022-10-17T17:47:47;20.80;74.30
44477;DHT22;30180;44.788;10.366;2022-10-17T17:50:17;20.80;74.30
44477;DHT22;30180;44.788;10.366;2022-10-17T17:52:45;20.80;74.30
44477;DHT22;30180;44.788;10.366;2022-10-17T17:55:16;20.80;74.30
44477;DHT22;30180;44.788;10.366;2022-10-17T17:57:44;20.70;74.30
44477;DHT22;30180;44.788;10.366;2022-10-17T18:00:13;20.80;74.30
44477;DHT22;30180;44.788;10.366;2022-10-17T18:02:41;20.80;74.30
44477;DHT22;30180;44.788;10.366;2022-10-17T18:05:10;20.70;74.20
44477;DHT22;30180;44.788;10.366;2022-10-17T18:07:39;20.70;74.20
44477;DHT22;30180;44.788;10.366;2022-10-17T18:10:08;20.80;74.30
44477;DHT22;30180;44.788;10.366;2022-10-17T18:12:45;20.70;74.20
44477;DHT22;30180;44.788;10.366;2022-10-17T18:15:13;20.70;74.30
44477;DHT22;30180;44.788;10.366;2022-10-17T18:17:44;20.70;74.20
44477;DHT22;30180;44.788;10.366;2022-10-17T18:20:13;20.70;74.20
44477;DHT22;30180;44.788;10.366;2022-10-17T18:22:42;20.70;74.20
44477;DHT22;30180;44.788;10.366;2022-10-17T18:25:10;20.80;74.30
44477;DHT22;30180;44.788;10.366;2022-10-17T18:27:38;20.70;74.20
44477;DHT22;30180;44.788;10.366;2022-10-17T18:30:08;20.70;74.20
44477;DHT22;30180;44.788;10.366;2022-10-17T18:32:36;20.70;74.20
44477;DHT22;30180;44.788;10.366;2022-10-17T18:35:05;20.70;74.20
44477;DHT22;30180;44.788;10.366;2022-10-17T18:37:37;20.70;74.20
44477;DHT22;30180;44.788;10.366;2022-10-17T18:40:08;20.70;74.20
44477;DHT22;30180;44.788;10.366;2022-10-17T18:42:36;20.70;74.20
44477;DHT22;30180;44.788;10.366;2022-10-17T18:45:05;20.80;74.20
44477;DHT22;30180;44.788;10.366;2022-10-17T18:47:33;20.70;74.20
44477;DHT22;30180;44.788;10.366;2022-10-17T18:50:02;20.70;74.20
44477;DHT22;30180;44.788;10.366;2022-10-17T18:52:30;20.70;74.20
44477;DHT22;30180;44.788;10.366;2022-10-17T18:54:58;20.70;74.20
44477;DHT22;30180;44.788;10.366;2022-10-17T18:57:27;20.70;74.20
44477;DHT22;30180;44.788;10.366;2022-10-17T18:59:56;20.80;74.20
44477;DHT22;30180;44.788;10.366;2022-10-17T19:02:24;20.70;74.80
44477;DHT22;30180;44.788;10.366;2022-10-17T19:04:52;20.70;74.20
44477;DHT22;30180;44.788;10.366;2022-10-17T19:07:20;20.80;74.20
44477;DHT22;30180;44.788;10.366;2022-10-17T19:09:48;20.70;74.20
44477;DHT22;30180;44.788;10.366;2022-10-17T19:12:16;20.80;74.20
44477;DHT22;30180;44.788;10.366;2022-10-17T19:14:48;20.70;74.20
44477;DHT22;30180;44.788;10.366;2022-10-17T19:17:17;20.70;74.10
44477;DHT22;30180;44.788;10.366;2022-10-17T19:19:49;20.80;74.20
44477;DHT22;30180;44.788;10.366;2022-10-17T19:22:18;20.70;74.10
44477;DHT22;30180;44.788;10.366;2022-10-17T19:24:46;20.70;74.10
44477;DHT22;30180;44.788;10.366;2022-10-17T19:27:15;20.70;74.10
44477;DHT22;30180;44.788;10.366;2022-10-17T19:29:43;20.80;74.20
44477;DHT22;30180;44.788;10.366;2022-10-17T19:32:12;20.80;74.20
44477;DHT22;30180;44.788;10.366;2022-10-17T19:34:46;20.80;74.20
44477;DHT22;30180;44.788;10.366;2022-10-17T19:37:14;20.80;74.20
44477;DHT22;30180;44.788;10.366;2022-10-17T19:39:42;20.70;74.70
44477;DHT22;30180;44.788;10.366;2022-10-17T19:42:10;20.70;74.10
44477;DHT22;30180;44.788;10.366;2022-10-17T19:44:38;20.70;74.10
44477;DHT22;30180;44.788;10.366;2022-10-17T19:47:10;20.70;74.10
44477;DHT22;30180;44.788;10.366;2022-10-17T19:49:39;20.70;74.10
44477;DHT22;30180;44.788;10.366;2022-10-17T19:52:14;20.70;74.10
44477;DHT22;30180;44.788;10.366;2022-10-17T19:54:43;20.80;74.10
44477;DHT22;30180;44.788;10.366;2022-10-17T19:57:11;20.80;74.10
44477;DHT22;30180;44.788;10.366;2022-10-17T19:59:39;20.70;74.00
44477;DHT22;30180;44.788;10.366;2022-10-17T20:02:08;20.70;74.10
44477;DHT22;30180;44.788;10.366;2022-10-17T20:04:38;20.80;74.10
44477;DHT22;30180;44.788;10.366;2022-10-17T20:07:26;20.70;74.10
44477;DHT22;30180;44.788;10.366;2022-10-17T20:09:55;20.70;74.10
44477;DHT22;30180;44.788;10.366;2022-10-17T20:12:23;20.70;74.00
44477;DHT22;30180;44.788;10.366;2022-10-17T20:14:51;20.70;74.10
44477;DHT22;30180;44.788;10.366;2022-10-17T20:17:19;20.80;74.10
44477;DHT22;30180;44.788;10.366;2022-10-17T20:19:48;20.70;74.00
44477;DHT22;30180;44.788;10.366;2022-10-17T20:22:22;20.80;74.10
44477;DHT22;30180;44.788;10.366;2022-10-17T20:24:50;20.70;74.00
44477;DHT22;30180;44.788;10.366;2022-10-17T20:27:21;20.70;74.00
44477;DHT22;30180;44.788;10.366;2022-10-17T20:29:53;20.70;74.10
44477;DHT22;30180;44.788;10.366;2022-10-17T20:32:23;20.80;74.10
44477;DHT22;30180;44.788;10.366;2022-10-17T20:34:53;20.80;74.10
44477;DHT22;30180;44.788;10.366;2022-10-17T20:37:21;20.80;74.10
44477;DHT22;30180;44.788;10.366;2022-10-17T20:39:49;20.80;74.10
44477;DHT22;30180;44.788;10.366;2022-10-17T20:42:37;20.70;74.10
44477;DHT22;30180;44.788;10.366;2022-10-17T20:45:06;20.70;74.00
44477;DHT22;30180;44.788;10.366;2022-10-17T20:47:34;20.70;74.00
44477;DHT22;30180;44.788;10.366;2022-10-17T20:50:15;20.80;74.10
44477;DHT22;30180;44.788;10.366;2022-10-17T20:52:43;20.80;74.00
44477;DHT22;30180;44.788;10.366;2022-10-17T20:55:11;20.80;74.00
44477;DHT22;30180;44.788;10.366;2022-10-17T20:57:39;20.70;74.00
44477;DHT22;30180;44.788;10.366;2022-10-17T21:00:08;20.80;74.00
44477;DHT22;30180;44.788;10.366;2022-10-17T21:02:37;20.70;74.00
44477;DHT22;30180;44.788;10.366;2022-10-17T21:05:05;20.80;74.00
44477;DHT22;30180;44.788;10.366;2022-10-17T21:07:37;20.70;74.00
44477;DHT22;30180;44.788;10.366;2022-10-17T21:10:06;20.70;74.00
44477;DHT22;30180;44.788;10.366;2022-10-17T21:12:57;20.80;74.00
44477;DHT22;30180;44.788;10.366;2022-10-17T21:15:25;20.70;74.00
44477;DHT22;30180;44.788;10.366;2022-10-17T21:17:54;20.80;74.00
44477;DHT22;30180;44.788;10.366;2022-10-17T21:20:25;20.70;74.00
44477;DHT22;30180;44.788;10.366;2022-10-17T21:22:54;20.70;73.90
44477;DHT22;30180;44.788;10.366;2022-10-17T21:25:23;20.70;73.90
44477;DHT22;30180;44.788;10.366;2022-10-17T21:27:54;20.70;73.90
44477;DHT22;30180;44.788;10.366;2022-10-17T21:30:22;20.70;73.90
44477;DHT22;30180;44.788;10.366;2022-10-17T21:32:52;20.70;73.90
44477;DHT22;30180;44.788;10.366;2022-10-17T21:35:21;20.80;74.00
44477;DHT22;30180;44.788;10.366;2022-10-17T21:37:50;20.70;73.90
44477;DHT22;30180;44.788;10.366;2022-10-17T21:40:19;20.80;74.00
44477;DHT22;30180;44.788;10.366;2022-10-17T21:42:47;20.80;74.00
44477;DHT22;30180;44.788;10.366;2022-10-17T21:45:16;20.70;73.90
44477;DHT22;30180;44.788;10.366;2022-10-17T21:47:51;20.70;73.90
44477;DHT22;30180;44.788;10.366;2022-10-17T21:50:38;20.70;73.90
44477;DHT22;30180;44.788;10.366;2022-10-17T21:53:07;20.70;73.90
44477;DHT22;30180;44.788;10.366;2022-10-17T21:55:36;20.70;74.00
44477;DHT22;30180;44.788;10.366;2022-10-17T21:58:05;20.80;74.00
44477;DHT22;30180;44.788;10.366;2022-10-17T22:00:33;20.80;74.00
44477;DHT22;30180;44.788;10.366;2022-10-17T22:03:04;20.80;73.90
44477;DHT22;30180;44.788;10.366;2022-10-17T22:05:32;20.70;73.90
44477;DHT22;30180;44.788;10.366;2022-10-17T22:08:01;20.70;73.90
44477;DHT22;30180;44.788;10.366;2022-10-17T22:10:29;20.70;73.90
44477;DHT22;30180;44.788;10.366;2022-10-17T22:12:58;20.80;73.90
44477;DHT22;30180;44.788;10.366;2022-10-17T22:15:26;20.70;73.90
44477;DHT22;30180;44.788;10.366;2022-10-17T22:17:54;20.80;73.90
44477;DHT22;30180;44.788;10.366;2022-10-17T22:20:22;20.80;73.90
44477;DHT22;30180;44.788;10.366;2022-10-17T22:22:50;20.70;73.90
44477;DHT22;30180;44.788;10.366;2022-10-17T22:25:19;20.70;73.90
44477;DHT22;30180;44.788;10.366;2022-10-17T22:27:47;20.70;73.90
44477;DHT22;30180;44.788;10.366;2022-10-17T22:30:17;20.70;73.90
44477;DHT22;30180;44.788;10.366;2022-10-17T22:32:45;20.80;73.90
44477;DHT22;30180;44.788;10.366;2022-10-17T22:35:13;20.70;73.90
44477;DHT22;30180;44.788;10.366;2022-10-17T22:37:41;20.70;73.90
44477;DHT22;30180;44.788;10.366;2022-10-17T22:40:10;20.80;74.50
44477;DHT22;30180;44.788;10.366;2022-10-17T22:42:38;20.70;73.80
44477;DHT22;30180;44.788;10.366;2022-10-17T22:45:07;20.80;73.90
44477;DHT22;30180;44.788;10.366;2022-10-17T22:47:37;20.70;73.90
44477;DHT22;30180;44.788;10.366;2022-10-17T22:50:08;20.80;73.90
44477;DHT22;30180;44.788;10.366;2022-10-17T22:52:36;20.70;73.90
44477;DHT22;30180;44.788;10.366;2022-10-17T22:55:05;20.70;73.90
44477;DHT22;30180;44.788;10.366;2022-10-17T22:57:34;20.80;73.90
44477;DHT22;30180;44.788;10.366;2022-10-17T23:00:03;20.70;74.50
44477;DHT22;30180;44.788;10.366;2022-10-17T23:02:32;20.80;73.90
44477;DHT22;30180;44.788;10.366;2022-10-17T23:05:01;20.70;73.90
44477;DHT22;30180;44.788;10.366;2022-10-17T23:07:36;20.80;73.90
44477;DHT22;30180;44.788;10.366;2022-10-17T23:10:05;20.70;73.80
44477;DHT22;30180;44.788;10.366;2022-10-17T23:12:33;20.80;73.90
44477;DHT22;30180;44.788;10.366;2022-10-17T23:15:01;20.70;73.80
44477;DHT22;30180;44.788;10.366;2022-10-17T23:17:29;20.80;73.90
44477;DHT22;30180;44.788;10.366;2022-10-17T23:20:02;20.70;73.80
44477;DHT22;30180;44.788;10.366;2022-10-17T23:22:40;20.80;73.90
44477;DHT22;30180;44.788;10.366;2022-10-17T23:25:08;20.70;73.80
44477;DHT22;30180;44.788;10.366;2022-10-17T23:27:36;20.70;73.80
44477;DHT22;30180;44.788;10.366;2022-10-17T23:30:05;20.80;73.80
44477;DHT22;30180;44.788;10.366;2022-10-17T23:32:33;20.80;73.80
44477;DHT22;30180;44.788;10.366;2022-10-17T23:35:03;20.70;73.80
44477;DHT22;30180;44.788;10.366;2022-10-17T23:37:31;20.70;74.40
44477;DHT22;30180;44.788;10.366;2022-10-17T23:40:00;20.80;73.80
44477;DHT22;30180;44.788;10.366;2022-10-17T23:45:10;20.70;73.80
44477;DHT22;30180;44.788;10.366;2022-10-17T23:47:41;20.80;73.80
44477;DHT22;30180;44.788;10.366;2022-10-17T23:50:11;20.80;73.80
44477;DHT22;30180;44.788;10.366;2022-10-17T23:52:39;20.80;73.80
44477;DHT22;30180;44.788;10.366;2022-10-17T23:55:08;20.70;73.80
44477;DHT22;30180;44.788;10.366;2022-10-17T23:57:45;20.70;73.80
